sensor_id;sensor_type;location;lat;lon;timestamp;pressure;altitude;pressure_sealevel;temperature;humidity
69879;BME280;57161;43.136;24.706;2023-03-04T00:01:39;99358.97;;;6.78;88.85
69879;BME280;57161;43.136;24.706;2023-03-04T00:04:04;99293.88;;;6.32;89.08
69879;BME280;57161;43.136;24.706;2023-03-04T00:06:30;99311.97;;;6.45;88.72
69879;BME280;57161;43.136;24.706;2023-03-04T00:08:55;99376.09;;;6.88;88.50
69879;BME280;57161;43.136;24.706;2023-03-04T00:11:21;99308.44;;;6.44;88.40
69879;BME280;57161;43.136;24.706;2023-03-04T00:13:50;99313.25;;;6.44;88.63
69879;BME280;57161;43.136;24.706;2023-03-04T00:16:15;99380.19;;;6.76;89.25
69879;BME280;57161;43.136;24.706;2023-03-04T00:18:41;99351.06;;;6.52;89.39
69879;BME280;57161;43.136;24.706;2023-03-04T00:21:06;99335.88;;;6.59;89.20
69879;BME280;57161;43.136;24.706;2023-03-04T00:23:32;99384.19;;;6.86;89.39
69879;BME280;57161;43.136;24.706;2023-03-04T00:25:57;99359.78;;;6.73;89.36
69879;BME280;57161;43.136;24.706;2023-03-04T00:28:23;99386.69;;;6.89;89.39
69879;BME280;57161;43.136;24.706;2023-03-04T00:30:48;99384.44;;;6.88;89.40
69879;BME280;57161;43.136;24.706;2023-03-04T00:33:15;99310.47;;;6.44;89.49
69879;BME280;57161;43.136;24.706;2023-03-04T00:35:40;99374.59;;;6.87;89.23
69879;BME280;57161;43.136;24.706;2023-03-04T00:38:07;99306.19;;;6.43;89.27
69879;BME280;57161;43.136;24.706;2023-03-04T00:40:33;99372.56;;;6.87;89.07
69879;BME280;57161;43.136;24.706;2023-03-04T00:42:58;99356.44;;;6.80;88.91
69879;BME280;57161;43.136;24.706;2023-03-04T00:45:24;99362.16;;;6.93;88.78
69879;BME280;57161;43.136;24.706;2023-03-04T00:47:49;99313.44;;;6.57;88.99
69879;BME280;57161;43.136;24.706;2023-03-04T00:50:15;99317.44;;;6.61;88.62
69879;BME280;57161;43.136;24.706;2023-03-04T00:52:41;99367.97;;;6.96;88.45
69879;BME280;57161;43.136;24.706;2023-03-04T00:55:07;99368.47;;;6.94;88.51
69879;BME280;57161;43.136;24.706;2023-03-04T00:57:33;99374.28;;;6.96;88.57
69879;BME280;57161;43.136;24.706;2023-03-04T00:59:58;99367.22;;;6.95;88.80
69879;BME280;57161;43.136;24.706;2023-03-04T01:02:24;99362.69;;;6.92;88.70
69879;BME280;57161;43.136;24.706;2023-03-04T01:04:49;99345.78;;;6.90;88.86
69879;BME280;57161;43.136;24.706;2023-03-04T01:07:15;99305.28;;;6.65;88.78
69879;BME280;57161;43.136;24.706;2023-03-04T01:09:40;99348.81;;;6.92;88.81
69879;BME280;57161;43.136;24.706;2023-03-04T01:12:06;99361.13;;;7.02;88.68
69879;BME280;57161;43.136;24.706;2023-03-04T01:14:32;99325.19;;;6.74;89.06
69879;BME280;57161;43.136;24.706;2023-03-04T01:16:58;99312.88;;;6.64;89.25
69879;BME280;57161;43.136;24.706;2023-03-04T01:19:23;99366.16;;;7.04;89.34
69879;BME280;57161;43.136;24.706;2023-03-04T01:21:49;99320.16;;;6.73;89.13
69879;BME280;57161;43.136;24.706;2023-03-04T01:24:15;99364.38;;;7.06;88.83
69879;BME280;57161;43.136;24.706;2023-03-04T01:26:40;99368.94;;;7.04;88.84
69879;BME280;57161;43.136;24.706;2023-03-04T01:29:06;99361.66;;;6.95;89.13
69879;BME280;57161;43.136;24.706;2023-03-04T01:31:31;99308.34;;;6.61;89.12
69879;BME280;57161;43.136;24.706;2023-03-04T01:33:57;99362.41;;;6.96;89.25
69879;BME280;57161;43.136;24.706;2023-03-04T01:36:22;99338.97;;;6.91;89.16
69879;BME280;57161;43.136;24.706;2023-03-04T01:38:48;99368.66;;;7.07;88.93
69879;BME280;57161;43.136;24.706;2023-03-04T01:41:23;99368.19;;;7.03;89.02
69879;BME280;57161;43.136;24.706;2023-03-04T01:43:49;99363.38;;;7.04;88.98
69879;BME280;57161;43.136;24.706;2023-03-04T01:46:15;99335.16;;;6.94;89.06
69879;BME280;57161;43.136;24.706;2023-03-04T01:48:42;99335.19;;;6.88;88.95
69879;BME280;57161;43.136;24.706;2023-03-04T01:51:14;99344.97;;;6.95;88.78
69879;BME280;57161;43.136;24.706;2023-03-04T01:53:40;99324.09;;;6.83;88.86
69879;BME280;57161;43.136;24.706;2023-03-04T01:56:18;99363.91;;;7.02;88.73
69879;BME280;57161;43.136;24.706;2023-03-04T01:58:43;99366.94;;;6.99;88.58
69879;BME280;57161;43.136;24.706;2023-03-04T02:01:12;99349.25;;;6.96;88.50
69879;BME280;57161;43.136;24.706;2023-03-04T02:03:38;99343.75;;;6.90;88.41
69879;BME280;57161;43.136;24.706;2023-03-04T02:06:05;99353.31;;;6.95;88.49
69879;BME280;57161;43.136;24.706;2023-03-04T02:08:30;99280.97;;;6.41;88.53
69879;BME280;57161;43.136;24.706;2023-03-04T02:10:56;99360.19;;;6.83;89.20
69879;BME280;57161;43.136;24.706;2023-03-04T02:13:22;99287.97;;;6.53;88.95
69879;BME280;57161;43.136;24.706;2023-03-04T02:15:47;99353.13;;;6.87;89.07
69879;BME280;57161;43.136;24.706;2023-03-04T02:18:19;99343.53;;;6.88;88.93
69879;BME280;57161;43.136;24.706;2023-03-04T02:23:43;99349.59;;;6.87;89.22
69879;BME280;57161;43.136;24.706;2023-03-04T02:26:14;99338.19;;;6.90;89.00
69879;BME280;57161;43.136;24.706;2023-03-04T02:28:41;99350.31;;;6.93;88.76
69879;BME280;57161;43.136;24.706;2023-03-04T02:31:33;99343.53;;;6.88;88.88
69879;BME280;57161;43.136;24.706;2023-03-04T02:34:02;99328.16;;;6.82;88.82
69879;BME280;57161;43.136;24.706;2023-03-04T02:36:29;99349.50;;;6.98;88.91
69879;BME280;57161;43.136;24.706;2023-03-04T02:39:03;99353.28;;;7.01;89.19
69879;BME280;57161;43.136;24.706;2023-03-04T02:41:29;99306.50;;;6.75;89.06
69879;BME280;57161;43.136;24.706;2023-03-04T02:43:55;99285.09;;;6.64;89.10
69879;BME280;57161;43.136;24.706;2023-03-04T02:46:21;99346.72;;;7.04;89.07
69879;BME280;57161;43.136;24.706;2023-03-04T02:48:46;99294.41;;;6.67;89.48
69879;BME280;57161;43.136;24.706;2023-03-04T02:51:12;99349.75;;;7.00;89.38
69879;BME280;57161;43.136;24.706;2023-03-04T02:53:37;99303.19;;;6.76;88.94
69879;BME280;57161;43.136;24.706;2023-03-04T02:56:03;99284.13;;;6.61;88.91
69879;BME280;57161;43.136;24.706;2023-03-04T02:58:29;99341.16;;;7.04;88.77
69879;BME280;57161;43.136;24.706;2023-03-04T03:00:54;99344.44;;;7.02;88.58
69879;BME280;57161;43.136;24.706;2023-03-04T03:03:20;99335.88;;;7.00;88.75
69879;BME280;57161;43.136;24.706;2023-03-04T03:05:46;99323.81;;;6.92;88.71
69879;BME280;57161;43.136;24.706;2023-03-04T03:08:11;99347.00;;;7.00;88.63
69879;BME280;57161;43.136;24.706;2023-03-04T03:10:37;99286.38;;;6.63;88.44
69879;BME280;57161;43.136;24.706;2023-03-04T03:13:02;99318.06;;;6.84;88.61
69879;BME280;57161;43.136;24.706;2023-03-04T03:15:28;99280.13;;;6.57;88.39
69879;BME280;57161;43.136;24.706;2023-03-04T03:17:53;99349.25;;;7.02;88.33
69879;BME280;57161;43.136;24.706;2023-03-04T03:20:19;99331.91;;;6.90;88.23
69879;BME280;57161;43.136;24.706;2023-03-04T03:22:44;99346.78;;;6.92;88.37
69879;BME280;57161;43.136;24.706;2023-03-04T03:25:12;99350.25;;;6.99;88.28
69879;BME280;57161;43.136;24.706;2023-03-04T03:27:39;99275.06;;;6.55;88.22
69879;BME280;57161;43.136;24.706;2023-03-04T03:30:05;99333.22;;;6.78;88.61
69879;BME280;57161;43.136;24.706;2023-03-04T03:32:31;99308.56;;;6.69;88.36
69879;BME280;57161;43.136;24.706;2023-03-04T03:34:57;99336.47;;;6.87;88.46
69879;BME280;57161;43.136;24.706;2023-03-04T03:37:22;99266.34;;;6.40;88.39
69879;BME280;57161;43.136;24.706;2023-03-04T03:39:48;99339.72;;;6.91;88.55
69879;BME280;57161;43.136;24.706;2023-03-04T03:42:13;99340.00;;;6.88;88.62
69879;BME280;57161;43.136;24.706;2023-03-04T03:44:39;99354.66;;;6.83;88.98
69879;BME280;57161;43.136;24.706;2023-03-04T03:47:04;99330.94;;;6.82;88.94
69879;BME280;57161;43.136;24.706;2023-03-04T03:49:30;99337.75;;;6.81;88.94
69879;BME280;57161;43.136;24.706;2023-03-04T03:51:56;99342.03;;;6.82;89.21
69879;BME280;57161;43.136;24.706;2023-03-04T03:54:21;99341.03;;;6.85;89.03
69879;BME280;57161;43.136;24.706;2023-03-04T03:56:50;99346.84;;;6.81;88.96
69879;BME280;57161;43.136;24.706;2023-03-04T03:59:15;99335.81;;;6.70;88.99
69879;BME280;57161;43.136;24.706;2023-03-04T04:01:41;99352.38;;;6.81;89.12
69879;BME280;57161;43.136;24.706;2023-03-04T04:04:06;99343.06;;;6.84;88.95
69879;BME280;57161;43.136;24.706;2023-03-04T04:06:32;99324.66;;;6.76;88.81
69879;BME280;57161;43.136;24.706;2023-03-04T04:08:57;99340.28;;;6.79;88.73
69879;BME280;57161;43.136;24.706;2023-03-04T04:11:23;99308.81;;;6.65;88.58
69879;BME280;57161;43.136;24.706;2023-03-04T04:13:48;99327.22;;;6.74;88.75
69879;BME280;57161;43.136;24.706;2023-03-04T04:16:14;99282.19;;;6.45;88.66
69879;BME280;57161;43.136;24.706;2023-03-04T04:18:39;99316.09;;;6.74;88.91
69879;BME280;57161;43.136;24.706;2023-03-04T04:21:05;99271.09;;;6.45;88.96
69879;BME280;57161;43.136;24.706;2023-03-04T04:23:31;99330.66;;;6.85;89.07
69879;BME280;57161;43.136;24.706;2023-03-04T04:25:56;99329.41;;;6.81;89.11
69879;BME280;57161;43.136;24.706;2023-03-04T04:28:23;99307.00;;;6.73;89.17
69879;BME280;57161;43.136;24.706;2023-03-04T04:30:50;99274.59;;;6.51;89.06
69879;BME280;57161;43.136;24.706;2023-03-04T04:33:16;99320.84;;;6.84;88.82
69879;BME280;57161;43.136;24.706;2023-03-04T04:35:41;99331.44;;;6.86;88.92
69879;BME280;57161;43.136;24.706;2023-03-04T04:38:07;99337.22;;;6.88;88.96
69879;BME280;57161;43.136;24.706;2023-03-04T04:40:33;99316.06;;;6.79;88.57
69879;BME280;57161;43.136;24.706;2023-03-04T04:42:59;99321.59;;;6.85;88.43
69879;BME280;57161;43.136;24.706;2023-03-04T04:45:24;99325.13;;;6.85;88.16
69879;BME280;57161;43.136;24.706;2023-03-04T04:47:51;99305.75;;;6.74;88.67
69879;BME280;57161;43.136;24.706;2023-03-04T04:50:16;99325.31;;;6.93;88.76
69879;BME280;57161;43.136;24.706;2023-03-04T04:52:42;99326.06;;;6.93;88.50
69879;BME280;57161;43.136;24.706;2023-03-04T04:55:08;99312.50;;;6.84;88.11
69879;BME280;57161;43.136;24.706;2023-03-04T04:57:34;99312.53;;;6.79;88.29
69879;BME280;57161;43.136;24.706;2023-03-04T04:59:59;99287.63;;;6.68;88.05
69879;BME280;57161;43.136;24.706;2023-03-04T05:02:25;99328.84;;;6.93;87.83
69879;BME280;57161;43.136;24.706;2023-03-04T05:04:50;99320.56;;;6.88;87.80
69879;BME280;57161;43.136;24.706;2023-03-04T05:07:16;99336.13;;;6.97;87.87
69879;BME280;57161;43.136;24.706;2023-03-04T05:09:41;99292.97;;;6.60;87.80
69879;BME280;57161;43.136;24.706;2023-03-04T05:12:07;99334.44;;;6.88;87.92
69879;BME280;57161;43.136;24.706;2023-03-04T05:14:32;99343.53;;;6.83;88.24
69879;BME280;57161;43.136;24.706;2023-03-04T05:16:58;99314.47;;;6.54;88.63
69879;BME280;57161;43.136;24.706;2023-03-04T05:19:23;99315.44;;;6.56;88.77
69879;BME280;57161;43.136;24.706;2023-03-04T05:21:49;99349.38;;;6.85;88.81
69879;BME280;57161;43.136;24.706;2023-03-04T05:24:14;99359.66;;;6.90;88.87
69879;BME280;57161;43.136;24.706;2023-03-04T05:26:40;99356.13;;;6.89;88.74
69879;BME280;57161;43.136;24.706;2023-03-04T05:29:06;99369.56;;;6.85;88.82
69879;BME280;57161;43.136;24.706;2023-03-04T05:31:31;99362.50;;;6.79;88.88
69879;BME280;57161;43.136;24.706;2023-03-04T05:33:57;99363.78;;;6.78;88.86
69879;BME280;57161;43.136;24.706;2023-03-04T05:36:22;99343.41;;;6.70;88.80
69879;BME280;57161;43.136;24.706;2023-03-04T05:38:48;99361.00;;;6.83;88.82
69879;BME280;57161;43.136;24.706;2023-03-04T05:41:14;99350.63;;;6.84;88.45
69879;BME280;57161;43.136;24.706;2023-03-04T05:43:39;99331.53;;;6.69;88.32
69879;BME280;57161;43.136;24.706;2023-03-04T05:46:08;99363.66;;;7.00;88.00
69879;BME280;57161;43.136;24.706;2023-03-04T05:48:37;99346.38;;;6.77;87.87
69879;BME280;57161;43.136;24.706;2023-03-04T05:51:02;99374.00;;;7.00;87.84
69879;BME280;57161;43.136;24.706;2023-03-04T05:53:28;99379.75;;;7.07;87.69
69879;BME280;57161;43.136;24.706;2023-03-04T05:55:54;99356.84;;;6.96;87.48
69879;BME280;57161;43.136;24.706;2023-03-04T05:58:20;99340.28;;;6.79;87.12
69879;BME280;57161;43.136;24.706;2023-03-04T06:00:46;99308.59;;;6.63;87.21
69879;BME280;57161;43.136;24.706;2023-03-04T06:03:18;99376.00;;;7.05;87.55
69879;BME280;57161;43.136;24.706;2023-03-04T06:05:44;99375.53;;;7.01;88.08
69879;BME280;57161;43.136;24.706;2023-03-04T06:08:10;99312.44;;;6.54;88.41
69879;BME280;57161;43.136;24.706;2023-03-04T06:10:37;99319.72;;;6.57;88.43
69879;BME280;57161;43.136;24.706;2023-03-04T06:13:03;99388.63;;;7.06;88.19
69879;BME280;57161;43.136;24.706;2023-03-04T06:15:29;99376.22;;;7.07;88.53
69879;BME280;57161;43.136;24.706;2023-03-04T06:17:55;99371.94;;;7.06;88.45
69879;BME280;57161;43.136;24.706;2023-03-04T06:20:20;99370.09;;;7.14;88.09
69879;BME280;57161;43.136;24.706;2023-03-04T06:22:46;99371.34;;;7.18;88.14
69879;BME280;57161;43.136;24.706;2023-03-04T06:25:12;99376.56;;;7.28;87.46
69879;BME280;57161;43.136;24.706;2023-03-04T06:27:37;99376.81;;;7.30;87.18
69879;BME280;57161;43.136;24.706;2023-03-04T06:30:04;99363.72;;;7.25;87.07
69879;BME280;57161;43.136;24.706;2023-03-04T06:32:30;99343.06;;;7.14;86.84
69879;BME280;57161;43.136;24.706;2023-03-04T06:34:55;99291.56;;;6.83;86.83
69879;BME280;57161;43.136;24.706;2023-03-04T06:37:21;99367.41;;;7.38;86.86
69879;BME280;57161;43.136;24.706;2023-03-04T06:39:46;99369.53;;;7.57;86.69
69879;BME280;57161;43.136;24.706;2023-03-04T06:42:12;99381.31;;;7.68;86.30
69879;BME280;57161;43.136;24.706;2023-03-04T06:44:38;99350.75;;;7.63;86.34
69879;BME280;57161;43.136;24.706;2023-03-04T06:47:03;99310.47;;;7.45;86.02
69879;BME280;57161;43.136;24.706;2023-03-04T06:49:29;99370.47;;;7.89;85.84
69879;BME280;57161;43.136;24.706;2023-03-04T06:51:55;99382.47;;;8.03;85.15
69879;BME280;57161;43.136;24.706;2023-03-04T06:54:20;99390.06;;;8.02;85.07
69879;BME280;57161;43.136;24.706;2023-03-04T06:56:46;99384.09;;;7.93;85.12
69879;BME280;57161;43.136;24.706;2023-03-04T06:59:11;99356.63;;;7.83;84.67
69879;BME280;57161;43.136;24.706;2023-03-04T07:01:37;99310.31;;;7.62;83.88
69879;BME280;57161;43.136;24.706;2023-03-04T07:04:02;99374.16;;;8.22;83.22
69879;BME280;57161;43.136;24.706;2023-03-04T07:06:28;99356.78;;;8.16;83.04
69879;BME280;57161;43.136;24.706;2023-03-04T07:08:55;99374.44;;;8.42;82.89
69879;BME280;57161;43.136;24.706;2023-03-04T07:11:21;99378.16;;;8.51;82.69
69879;BME280;57161;43.136;24.706;2023-03-04T07:13:47;99374.78;;;8.58;82.47
69879;BME280;57161;43.136;24.706;2023-03-04T07:16:16;99385.03;;;8.68;82.24
69879;BME280;57161;43.136;24.706;2023-03-04T07:18:43;99368.63;;;8.65;82.02
69879;BME280;57161;43.136;24.706;2023-03-04T07:21:09;99382.59;;;8.78;82.11
69879;BME280;57161;43.136;24.706;2023-03-04T07:23:35;99347.09;;;8.65;82.03
69879;BME280;57161;43.136;24.706;2023-03-04T07:26:00;99383.97;;;8.90;81.95
69879;BME280;57161;43.136;24.706;2023-03-04T07:28:26;99344.97;;;8.53;81.70
69879;BME280;57161;43.136;24.706;2023-03-04T07:30:52;99336.75;;;8.41;81.49
69879;BME280;57161;43.136;24.706;2023-03-04T07:33:17;99373.25;;;8.76;80.68
69879;BME280;57161;43.136;24.706;2023-03-04T07:35:43;99396.47;;;8.84;81.11
69879;BME280;57161;43.136;24.706;2023-03-04T07:38:09;99354.28;;;8.74;80.86
69879;BME280;57161;43.136;24.706;2023-03-04T07:40:34;99357.38;;;8.89;80.46
69879;BME280;57161;43.136;24.706;2023-03-04T07:43:00;99376.78;;;9.14;79.95
69879;BME280;57161;43.136;24.706;2023-03-04T07:45:26;99383.03;;;9.20;79.71
69879;BME280;57161;43.136;24.706;2023-03-04T07:47:51;99332.75;;;8.93;79.26
69879;BME280;57161;43.136;24.706;2023-03-04T07:50:17;99338.81;;;9.11;78.98
69879;BME280;57161;43.136;24.706;2023-03-04T07:52:45;99371.81;;;9.39;77.11
69879;BME280;57161;43.136;24.706;2023-03-04T07:55:13;99378.72;;;9.51;74.97
69879;BME280;57161;43.136;24.706;2023-03-04T07:57:43;99371.38;;;9.67;73.83
69879;BME280;57161;43.136;24.706;2023-03-04T08:00:11;99381.00;;;9.52;76.81
69879;BME280;57161;43.136;24.706;2023-03-04T08:02:38;99341.47;;;9.03;76.11
69879;BME280;57161;43.136;24.706;2023-03-04T08:05:04;99368.47;;;9.27;76.20
69879;BME280;57161;43.136;24.706;2023-03-04T08:07:30;99371.81;;;9.39;74.14
69879;BME280;57161;43.136;24.706;2023-03-04T08:09:55;99356.16;;;9.36;71.88
69879;BME280;57161;43.136;24.706;2023-03-04T08:12:21;99351.16;;;9.47;73.01
69879;BME280;57161;43.136;24.706;2023-03-04T08:14:49;99305.41;;;9.24;72.02
69879;BME280;57161;43.136;24.706;2023-03-04T08:17:14;99355.03;;;9.57;72.16
69879;BME280;57161;43.136;24.706;2023-03-04T08:19:40;99325.19;;;9.52;72.13
69879;BME280;57161;43.136;24.706;2023-03-04T08:22:06;99370.44;;;10.04;70.74
69879;BME280;57161;43.136;24.706;2023-03-04T08:24:31;99364.84;;;10.17;69.61
69879;BME280;57161;43.136;24.706;2023-03-04T08:26:57;99376.44;;;10.08;69.79
69879;BME280;57161;43.136;24.706;2023-03-04T08:29:24;99365.94;;;10.14;68.08
69879;BME280;57161;43.136;24.706;2023-03-04T08:31:51;99375.69;;;10.07;67.78
69879;BME280;57161;43.136;24.706;2023-03-04T08:34:19;99367.97;;;10.00;68.02
69879;BME280;57161;43.136;24.706;2023-03-04T08:36:45;99362.28;;;9.92;69.18
69879;BME280;57161;43.136;24.706;2023-03-04T08:39:12;99363.66;;;9.86;69.60
69879;BME280;57161;43.136;24.706;2023-03-04T08:41:38;99354.22;;;9.89;69.30
69879;BME280;57161;43.136;24.706;2023-03-04T08:44:03;99345.66;;;10.13;68.59
69879;BME280;57161;43.136;24.706;2023-03-04T08:46:30;99362.44;;;10.27;69.64
69879;BME280;57161;43.136;24.706;2023-03-04T08:48:55;99349.06;;;10.46;68.58
69879;BME280;57161;43.136;24.706;2023-03-04T08:51:22;99359.28;;;10.43;67.31
69879;BME280;57161;43.136;24.706;2023-03-04T08:53:47;99313.44;;;9.99;67.75
69879;BME280;57161;43.136;24.706;2023-03-04T08:56:13;99331.91;;;10.02;69.21
69879;BME280;57161;43.136;24.706;2023-03-04T08:58:40;99291.22;;;9.67;69.74
69879;BME280;57161;43.136;24.706;2023-03-04T09:01:10;99326.00;;;9.79;69.45
69879;BME280;57161;43.136;24.706;2023-03-04T09:03:36;99327.16;;;9.84;70.96
69879;BME280;57161;43.136;24.706;2023-03-04T09:06:03;99325.53;;;9.75;70.86
69879;BME280;57161;43.136;24.706;2023-03-04T09:08:29;99330.41;;;10.01;70.09
69879;BME280;57161;43.136;24.706;2023-03-04T09:10:55;99250.88;;;9.68;69.75
69879;BME280;57161;43.136;24.706;2023-03-04T09:13:21;99271.56;;;9.99;69.22
69879;BME280;57161;43.136;24.706;2023-03-04T09:15:49;99308.16;;;10.35;69.50
69879;BME280;57161;43.136;24.706;2023-03-04T09:18:15;99322.81;;;10.62;69.27
69879;BME280;57161;43.136;24.706;2023-03-04T09:20:42;99316.16;;;10.65;68.06
69879;BME280;57161;43.136;24.706;2023-03-04T09:23:08;99244.41;;;10.00;69.22
69879;BME280;57161;43.136;24.706;2023-03-04T09:25:34;99252.56;;;9.98;68.94
69879;BME280;57161;43.136;24.706;2023-03-04T09:28:00;99301.41;;;10.17;70.21
69879;BME280;57161;43.136;24.706;2023-03-04T09:30:25;99297.22;;;10.24;70.28
69879;BME280;57161;43.136;24.706;2023-03-04T09:32:51;99229.06;;;9.93;70.33
69879;BME280;57161;43.136;24.706;2023-03-04T09:35:17;99282.25;;;10.48;70.25
69879;BME280;57161;43.136;24.706;2023-03-04T09:37:43;99258.25;;;10.52;67.80
69879;BME280;57161;43.136;24.706;2023-03-04T09:40:17;99275.00;;;10.87;66.25
69879;BME280;57161;43.136;24.706;2023-03-04T09:42:47;99301.00;;;10.95;66.39
69879;BME280;57161;43.136;24.706;2023-03-04T09:45:21;99277.19;;;10.80;67.22
69879;BME280;57161;43.136;24.706;2023-03-04T09:47:50;99256.50;;;10.42;67.90
69879;BME280;57161;43.136;24.706;2023-03-04T09:50:17;99291.72;;;10.79;68.57
69879;BME280;57161;43.136;24.706;2023-03-04T09:55:41;99193.44;;;10.33;67.71
69879;BME280;57161;43.136;24.706;2023-03-04T10:01:33;99280.69;;;11.15;66.96
69879;BME280;57161;43.136;24.706;2023-03-04T10:04:17;99272.41;;;11.30;65.97
69879;BME280;57161;43.136;24.706;2023-03-04T10:06:46;99254.59;;;11.41;66.07
69879;BME280;57161;43.136;24.706;2023-03-04T10:09:50;99235.44;;;11.53;65.83
69879;BME280;57161;43.136;24.706;2023-03-04T10:12:21;99256.44;;;11.67;65.16
69879;BME280;57161;43.136;24.706;2023-03-04T10:14:52;99236.94;;;11.54;65.27
69879;BME280;57161;43.136;24.706;2023-03-04T10:20:14;99261.09;;;11.93;64.39
69879;BME280;57161;43.136;24.706;2023-03-04T10:22:47;99224.97;;;11.74;63.67
69879;BME280;57161;43.136;24.706;2023-03-04T10:28:14;99252.66;;;12.29;62.50
69879;BME280;57161;43.136;24.706;2023-03-04T10:33:17;99238.16;;;12.46;61.25
69879;BME280;57161;43.136;24.706;2023-03-04T10:35:48;99236.69;;;12.60;61.06
69879;BME280;57161;43.136;24.706;2023-03-04T10:38:18;99182.84;;;12.46;60.58
69879;BME280;57161;43.136;24.706;2023-03-04T10:40:44;99198.94;;;12.53;60.60
69879;BME280;57161;43.136;24.706;2023-03-04T10:43:15;99180.75;;;12.24;60.20
69879;BME280;57161;43.136;24.706;2023-03-04T10:45:41;99186.03;;;12.43;58.77
69879;BME280;57161;43.136;24.706;2023-03-04T10:48:17;99213.16;;;12.55;60.70
69879;BME280;57161;43.136;24.706;2023-03-04T10:50:43;99212.59;;;12.57;60.65
69879;BME280;57161;43.136;24.706;2023-03-04T10:53:24;99210.19;;;12.76;60.23
69879;BME280;57161;43.136;24.706;2023-03-04T10:55:50;99181.94;;;12.67;59.20
69879;BME280;57161;43.136;24.706;2023-03-04T10:58:16;99199.53;;;12.98;58.81
69879;BME280;57161;43.136;24.706;2023-03-04T11:00:57;99164.75;;;12.78;57.61
69879;BME280;57161;43.136;24.706;2023-03-04T11:05:50;99184.38;;;13.16;57.86
69879;BME280;57161;43.136;24.706;2023-03-04T11:08:21;99181.59;;;13.31;58.13
69879;BME280;57161;43.136;24.706;2023-03-04T11:10:48;99177.47;;;13.40;56.27
69879;BME280;57161;43.136;24.706;2023-03-04T11:13:17;99169.41;;;13.13;56.32
69879;BME280;57161;43.136;24.706;2023-03-04T11:18:14;99161.56;;;12.51;60.12
69879;BME280;57161;43.136;24.706;2023-03-04T11:20:43;99148.81;;;12.35;59.45
69879;BME280;57161;43.136;24.706;2023-03-04T11:23:51;99154.28;;;12.40;59.69
69879;BME280;57161;43.136;24.706;2023-03-04T11:26:22;99138.00;;;12.23;59.50
69879;BME280;57161;43.136;24.706;2023-03-04T11:28:52;99151.25;;;12.23;60.02
69879;BME280;57161;43.136;24.706;2023-03-04T11:31:30;99149.38;;;12.33;58.99
69879;BME280;57161;43.136;24.706;2023-03-04T11:36:50;99140.00;;;12.08;59.80
69879;BME280;57161;43.136;24.706;2023-03-04T11:39:26;99134.41;;;12.08;60.20
69879;BME280;57161;43.136;24.706;2023-03-04T11:42:04;99126.75;;;12.08;60.61
69879;BME280;57161;43.136;24.706;2023-03-04T11:44:34;99117.75;;;12.02;59.40
69879;BME280;57161;43.136;24.706;2023-03-04T11:53:03;99124.50;;;12.07;60.23
69879;BME280;57161;43.136;24.706;2023-03-04T11:55:35;99116.06;;;11.91;59.46
69879;BME280;57161;43.136;24.706;2023-03-04T12:01:07;99070.28;;;11.73;59.56
69879;BME280;57161;43.136;24.706;2023-03-04T12:23:13;99095.25;;;12.38;57.32
69879;BME280;57161;43.136;24.706;2023-03-04T12:42:48;99050.75;;;12.88;55.41
69879;BME280;57161;43.136;24.706;2023-03-04T12:48:31;99066.41;;;13.21;55.64
69879;BME280;57161;43.136;24.706;2023-03-04T12:59:35;99053.44;;;13.34;56.48
69879;BME280;57161;43.136;24.706;2023-03-04T13:10:21;99037.97;;;13.25;55.92
69879;BME280;57161;43.136;24.706;2023-03-04T13:13:00;99034.78;;;13.13;56.11
69879;BME280;57161;43.136;24.706;2023-03-04T13:15:36;99034.97;;;13.15;57.04
69879;BME280;57161;43.136;24.706;2023-03-04T13:18:34;99028.00;;;13.32;57.00
69879;BME280;57161;43.136;24.706;2023-03-04T13:21:28;99024.19;;;13.52;56.57
69879;BME280;57161;43.136;24.706;2023-03-04T13:23:57;99017.59;;;13.57;56.07
69879;BME280;57161;43.136;24.706;2023-03-04T13:26:28;99021.31;;;13.67;55.77
69879;BME280;57161;43.136;24.706;2023-03-04T13:29:09;99006.97;;;13.48;54.87
69879;BME280;57161;43.136;24.706;2023-03-04T13:34:51;99013.13;;;13.54;55.68
69879;BME280;57161;43.136;24.706;2023-03-04T13:37:33;98952.47;;;13.26;55.78
69879;BME280;57161;43.136;24.706;2023-03-04T13:42:52;98954.19;;;13.54;55.35
69879;BME280;57161;43.136;24.706;2023-03-04T13:45:33;98941.47;;;13.53;53.46
69879;BME280;57161;43.136;24.706;2023-03-04T13:48:00;98996.31;;;13.79;54.20
69879;BME280;57161;43.136;24.706;2023-03-04T13:50:45;98988.03;;;13.89;54.19
69879;BME280;57161;43.136;24.706;2023-03-04T13:53:29;98977.22;;;13.85;53.41
69879;BME280;57161;43.136;24.706;2023-03-04T13:56:20;98982.72;;;14.00;52.35
69879;BME280;57161;43.136;24.706;2023-03-04T13:59:00;98941.63;;;13.88;52.53
69879;BME280;57161;43.136;24.706;2023-03-04T14:01:31;98985.31;;;13.98;51.86
69879;BME280;57161;43.136;24.706;2023-03-04T14:03:58;98969.81;;;13.72;53.24
69879;BME280;57161;43.136;24.706;2023-03-04T14:06:27;98967.91;;;13.75;53.35
69879;BME280;57161;43.136;24.706;2023-03-04T14:08:54;98911.03;;;13.42;54.23
69879;BME280;57161;43.136;24.706;2023-03-04T14:11:34;98962.72;;;13.64;54.79
69879;BME280;57161;43.136;24.706;2023-03-04T14:14:10;98902.28;;;13.38;54.80
69879;BME280;57161;43.136;24.706;2023-03-04T14:16:43;98960.97;;;13.76;54.62
69879;BME280;57161;43.136;24.706;2023-03-04T14:19:28;98947.91;;;13.71;54.70
69879;BME280;57161;43.136;24.706;2023-03-04T14:21:54;98948.13;;;13.65;54.75
69879;BME280;57161;43.136;24.706;2023-03-04T14:24:21;98939.28;;;13.44;55.35
69879;BME280;57161;43.136;24.706;2023-03-04T14:27:09;98951.34;;;13.29;55.37
69879;BME280;57161;43.136;24.706;2023-03-04T14:29:36;98925.31;;;12.88;56.23
69879;BME280;57161;43.136;24.706;2023-03-04T14:32:03;98940.97;;;12.99;56.16
69879;BME280;57161;43.136;24.706;2023-03-04T14:34:35;98938.72;;;12.98;56.39
69879;BME280;57161;43.136;24.706;2023-03-04T14:37:23;98930.13;;;13.03;56.42
69879;BME280;57161;43.136;24.706;2023-03-04T14:39:50;98937.53;;;13.16;55.30